createdAt,value
2016-07-29T00:00:02.780Z,19.7
2016-07-29T00:00:12.775Z,19.8
2016-07-29T00:00:22.769Z,19.7
2016-07-29T00:00:32.766Z,19.8
2016-07-29T00:00:42.761Z,19.7
2016-07-29T00:00:52.755Z,19.7
2016-07-29T00:01:02.751Z,19.7
2016-07-29T00:01:12.746Z,19.7
2016-07-29T00:01:22.743Z,19.7
2016-07-29T00:01:32.739Z,19.7
2016-07-29T00:01:42.735Z,19.8
2016-07-29T00:01:52.729Z,19.7
2016-07-29T00:02:02.726Z,19.7
2016-07-29T00:02:12.719Z,19.7
2016-07-29T00:02:22.716Z,19.7
2016-07-29T00:02:32.709Z,19.8
2016-07-29T00:02:42.706Z,19.7
2016-07-29T00:02:52.702Z,19.7
2016-07-29T00:03:02.697Z,19.8
2016-07-29T00:03:12.693Z,19.8
2016-07-29T00:03:22.689Z,19.7
2016-07-29T00:03:32.684Z,19.8
2016-07-29T00:03:42.680Z,19.8
2016-07-29T00:03:52.675Z,19.7
2016-07-29T00:04:02.671Z,19.7
2016-07-29T00:04:12.665Z,19.6
2016-07-29T00:04:22.659Z,19.6
2016-07-29T00:04:32.656Z,19.7
2016-07-29T00:04:42.652Z,19.7
2016-07-29T00:04:52.647Z,19.7
2016-07-29T00:05:02.641Z,19.8
2016-07-29T00:05:12.638Z,19.8
2016-07-29T00:05:22.642Z,19.7
2016-07-29T00:05:32.630Z,19.7
2016-07-29T00:05:42.624Z,19.6
2016-07-29T00:05:52.620Z,19.7
2016-07-29T00:06:02.615Z,19.7
2016-07-29T00:06:12.611Z,19.7
2016-07-29T00:06:22.606Z,19.7
2016-07-29T00:06:32.602Z,19.8
2016-07-29T00:06:42.598Z,19.7
2016-07-29T00:06:52.594Z,19.7
2016-07-29T00:07:02.589Z,19.7
2016-07-29T00:07:12.590Z,19.7
2016-07-29T00:07:22.580Z,19.7
2016-07-29T00:07:32.574Z,19.7
2016-07-29T00:07:42.570Z,19.6
2016-07-29T00:07:52.566Z,19.7
2016-07-29T00:08:02.560Z,19.7
2016-07-29T00:08:12.557Z,19.7
2016-07-29T00:08:22.551Z,19.7
2016-07-29T00:08:32.548Z,19.7
2016-07-29T00:08:42.544Z,19.6
2016-07-29T00:08:52.540Z,19.7
2016-07-29T00:09:02.534Z,19.6
2016-07-29T00:09:12.529Z,19.7
2016-07-29T00:09:22.524Z,19.6
2016-07-29T00:09:32.519Z,19.6
2016-07-29T00:09:42.514Z,19.7
2016-07-29T00:09:52.511Z,19.8
2016-07-29T00:10:02.506Z,19.7
2016-07-29T00:10:12.506Z,19.7
2016-07-29T00:10:22.498Z,19.7
2016-07-29T00:10:32.494Z,19.7
2016-07-29T00:10:42.489Z,19.6
2016-07-29T00:10:52.484Z,19.7
2016-07-29T00:11:02.478Z,19.8
2016-07-29T00:11:12.474Z,19.7
2016-07-29T00:11:22.469Z,19.8
2016-07-29T00:11:32.465Z,19.7
2016-07-29T00:11:42.461Z,19.7
2016-07-29T00:11:52.456Z,19.7
2016-07-29T00:12:02.453Z,19.6
2016-07-29T00:12:12.448Z,19.7
2016-07-29T00:12:22.444Z,19.7
2016-07-29T00:12:32.437Z,19.7
2016-07-29T00:12:42.433Z,19.7
2016-07-29T00:12:52.430Z,19.7
2016-07-29T00:13:02.424Z,19.7
2016-07-29T00:13:12.421Z,19.7
2016-07-29T00:13:22.415Z,19.7
2016-07-29T00:13:32.423Z,19.7
2016-07-29T00:13:42.407Z,19.7
2016-07-29T00:13:52.401Z,19.7
2016-07-29T00:14:02.399Z,19.7
2016-07-29T00:14:12.392Z,19.7
2016-07-29T00:14:22.388Z,19.7
2016-07-29T00:14:32.383Z,19.7
2016-07-29T00:14:42.378Z,19.7
2016-07-29T00:14:52.375Z,19.7
2016-07-29T00:15:02.374Z,19.7
2016-07-29T00:15:12.365Z,19.7
2016-07-29T00:15:22.363Z,19.7
2016-07-29T00:15:32.356Z,19.7
2016-07-29T00:15:42.351Z,19.8
2016-07-29T00:15:52.346Z,19.6
2016-07-29T00:16:02.342Z,19.6
2016-07-29T00:16:12.337Z,19.7
2016-07-29T00:16:22.333Z,19.7
2016-07-29T00:16:32.329Z,19.8
2016-07-29T00:16:42.326Z,19.7
2016-07-29T00:16:52.321Z,19.7
2016-07-29T00:17:02.315Z,19.7
2016-07-29T00:17:12.311Z,19.7
2016-07-29T00:17:22.307Z,19.7
2016-07-29T00:17:32.303Z,19.7
2016-07-29T00:17:42.298Z,19.7
2016-07-29T00:17:52.293Z,19.6
2016-07-29T00:18:02.288Z,19.6
2016-07-29T00:18:12.284Z,19.7
2016-07-29T00:18:22.281Z,19.7
2016-07-29T00:18:32.275Z,19.7
2016-07-29T00:18:42.269Z,19.7
2016-07-29T00:18:52.265Z,19.7
2016-07-29T00:19:02.258Z,19.7
2016-07-29T00:19:12.257Z,19.7
2016-07-29T00:19:22.253Z,19.7
2016-07-29T00:19:32.247Z,19.7
2016-07-29T00:19:42.243Z,19.7
2016-07-29T00:19:52.239Z,19.7
2016-07-29T00:20:02.234Z,19.7
2016-07-29T00:20:12.230Z,19.8
2016-07-29T00:20:22.225Z,19.6
2016-07-29T00:20:32.220Z,19.6
2016-07-29T00:20:42.216Z,19.7
2016-07-29T00:20:52.210Z,19.7
2016-07-29T00:21:02.206Z,19.8
2016-07-29T00:21:12.202Z,19.7
2016-07-29T00:21:22.198Z,19.7
2016-07-29T00:21:32.194Z,19.7
2016-07-29T00:21:42.189Z,19.7
2016-07-29T00:21:52.184Z,19.7
2016-07-29T00:22:02.179Z,19.7
2016-07-29T00:22:12.175Z,19.6
2016-07-29T00:22:22.169Z,19.7
2016-07-29T00:22:32.166Z,19.6
2016-07-29T00:22:42.161Z,19.8
2016-07-29T00:22:52.158Z,19.6
2016-07-29T00:23:02.153Z,19.7
2016-07-29T00:23:12.148Z,19.7
2016-07-29T00:23:22.143Z,19.7
2016-07-29T00:23:32.138Z,19.7
2016-07-29T00:23:42.133Z,19.6
2016-07-29T00:23:52.133Z,19.7
2016-07-29T00:24:02.125Z,19.7
2016-07-29T00:24:12.120Z,19.6
2016-07-29T00:24:22.115Z,19.7
2016-07-29T00:24:32.111Z,19.6
2016-07-29T00:24:42.107Z,19.7
2016-07-29T00:24:52.102Z,19.7
2016-07-29T00:25:02.099Z,19.7
2016-07-29T00:25:12.093Z,19.7
2016-07-29T00:25:22.088Z,19.7
2016-07-29T00:25:32.084Z,19.7
2016-07-29T00:25:42.079Z,19.7
2016-07-29T00:25:52.073Z,19.7
2016-07-29T00:26:02.070Z,19.6
2016-07-29T00:26:12.064Z,19.6
2016-07-29T00:26:22.062Z,19.7
2016-07-29T00:26:32.056Z,19.8
2016-07-29T00:26:42.051Z,19.6
2016-07-29T00:26:52.049Z,19.7
2016-07-29T00:27:02.044Z,19.7
2016-07-29T00:27:12.040Z,19.7
2016-07-29T00:27:22.035Z,19.6
2016-07-29T00:27:32.028Z,19.7
2016-07-29T00:27:42.025Z,19.6
2016-07-29T00:27:52.020Z,19.7
2016-07-29T00:28:02.017Z,19.6
2016-07-29T00:28:12.011Z,19.6
2016-07-29T00:28:22.007Z,19.6
2016-07-29T00:28:32.003Z,19.7
2016-07-29T00:28:41.998Z,19.7
2016-07-29T00:28:51.993Z,19.6
2016-07-29T00:29:01.989Z,19.6
2016-07-29T00:29:11.984Z,19.6
2016-07-29T00:29:21.977Z,19.6
2016-07-29T00:29:31.975Z,19.6
2016-07-29T00:29:41.970Z,19.7
2016-07-29T00:29:51.966Z,19.7
2016-07-29T00:30:01.962Z,19.7
2016-07-29T00:30:11.957Z,19.6
2016-07-29T00:30:21.952Z,19.7
2016-07-29T00:30:31.947Z,19.7
2016-07-29T00:30:41.943Z,19.7
2016-07-29T00:30:51.939Z,19.7
2016-07-29T00:31:01.932Z,19.6
2016-07-29T00:31:11.929Z,19.7
2016-07-29T00:31:21.925Z,19.6
2016-07-29T00:31:31.921Z,19.7
2016-07-29T00:31:41.915Z,19.7
2016-07-29T00:31:51.912Z,19.7
2016-07-29T00:32:01.907Z,19.7
2016-07-29T00:32:11.902Z,19.6
2016-07-29T00:32:21.897Z,19.7
2016-07-29T00:32:31.895Z,19.7
2016-07-29T00:32:41.891Z,19.7
2016-07-29T00:32:51.883Z,19.7
2016-07-29T00:33:01.879Z,19.7
2016-07-29T00:33:11.874Z,19.6
2016-07-29T00:33:21.871Z,19.7
2016-07-29T00:33:31.867Z,19.7
2016-07-29T00:33:41.861Z,19.6
2016-07-29T00:33:51.857Z,19.7
2016-07-29T00:34:01.854Z,19.7
2016-07-29T00:34:11.848Z,19.7
2016-07-29T00:34:21.843Z,19.6
2016-07-29T00:34:31.838Z,19.7
2016-07-29T00:34:41.833Z,19.7
2016-07-29T00:34:51.829Z,19.6
2016-07-29T00:35:01.825Z,19.6
2016-07-29T00:35:11.820Z,19.7
2016-07-29T00:35:21.817Z,19.8
2016-07-29T00:35:31.811Z,19.6
2016-07-29T00:35:41.808Z,19.7
2016-07-29T00:35:51.802Z,19.6
2016-07-29T00:36:01.798Z,19.7
2016-07-29T00:36:11.794Z,19.7
2016-07-29T00:36:21.787Z,19.6
2016-07-29T00:36:31.784Z,19.7
2016-07-29T00:36:41.779Z,19.7
2016-07-29T00:36:51.774Z,19.7
2016-07-29T00:37:01.772Z,19.7
2016-07-29T00:37:11.766Z,19.6
2016-07-29T00:37:21.762Z,19.7
2016-07-29T00:37:31.759Z,19.7
2016-07-29T00:37:41.752Z,19.7
2016-07-29T00:37:51.748Z,19.6
2016-07-29T00:38:01.744Z,19.7
2016-07-29T00:38:11.739Z,19.6
2016-07-29T00:38:21.734Z,19.7
2016-07-29T00:38:31.730Z,19.7
2016-07-29T00:38:41.725Z,19.7
2016-07-29T00:38:51.723Z,19.7
2016-07-29T00:39:01.716Z,19.6
2016-07-29T00:39:11.712Z,19.6
2016-07-29T00:39:21.708Z,19.7
2016-07-29T00:39:31.701Z,19.7
2016-07-29T00:39:41.698Z,19.6
2016-07-29T00:39:51.697Z,19.7
2016-07-29T00:40:01.688Z,19.7
2016-07-29T00:40:11.684Z,19.6
2016-07-29T00:40:21.678Z,19.6
2016-07-29T00:40:31.675Z,19.7
2016-07-29T00:40:41.670Z,19.7
2016-07-29T00:40:51.665Z,19.7
2016-07-29T00:41:01.661Z,19.7
2016-07-29T00:41:11.658Z,19.7
2016-07-29T00:41:21.651Z,19.7
2016-07-29T00:41:31.649Z,19.7
2016-07-29T00:41:41.643Z,19.6
2016-07-29T00:41:51.639Z,19.6
2016-07-29T00:42:01.634Z,19.7
2016-07-29T00:42:11.629Z,19.6
2016-07-29T00:42:21.626Z,19.7
2016-07-29T00:42:31.640Z,19.7
2016-07-29T00:42:41.617Z,19.7
2016-07-29T00:42:51.612Z,19.7
2016-07-29T00:43:01.607Z,19.7
2016-07-29T00:43:11.602Z,19.7
2016-07-29T00:43:21.599Z,19.6
2016-07-29T00:43:31.593Z,19.7
2016-07-29T00:43:41.589Z,19.7
2016-07-29T00:43:51.584Z,19.7
2016-07-29T00:44:01.579Z,19.7
2016-07-29T00:44:11.577Z,19.6
2016-07-29T00:44:21.570Z,19.7
2016-07-29T00:44:31.566Z,19.6
2016-07-29T00:44:41.560Z,19.6
2016-07-29T00:44:51.557Z,19.6
2016-07-29T00:45:01.553Z,19.6
2016-07-29T00:45:11.547Z,19.6
2016-07-29T00:45:21.542Z,19.7
2016-07-29T00:45:31.539Z,19.7
2016-07-29T00:45:41.534Z,19.7
2016-07-29T00:45:51.530Z,19.6
2016-07-29T00:46:01.526Z,19.7
2016-07-29T00:46:11.520Z,19.6
2016-07-29T00:46:21.518Z,19.7
2016-07-29T00:46:31.512Z,19.6
2016-07-29T00:46:41.508Z,19.7
2016-07-29T00:46:51.503Z,19.6
2016-07-29T00:47:01.498Z,19.6
2016-07-29T00:47:11.501Z,19.7
2016-07-29T00:47:21.491Z,19.6
2016-07-29T00:47:31.485Z,19.6
2016-07-29T00:47:41.482Z,19.6
2016-07-29T00:47:51.475Z,19.6
2016-07-29T00:48:01.471Z,19.6
2016-07-29T00:48:11.467Z,19.6
2016-07-29T00:48:21.462Z,19.7
2016-07-29T00:48:31.457Z,19.6
2016-07-29T00:48:41.453Z,19.7
2016-07-29T00:48:51.447Z,19.6
2016-07-29T00:49:01.445Z,19.7
2016-07-29T00:49:11.438Z,19.7
2016-07-29T00:49:21.435Z,19.6
2016-07-29T00:49:31.440Z,19.7
2016-07-29T00:49:41.425Z,19.6
2016-07-29T00:49:51.421Z,19.6
2016-07-29T00:50:01.416Z,19.6
2016-07-29T00:50:11.411Z,19.7
2016-07-29T00:50:21.407Z,19.6
2016-07-29T00:50:31.402Z,19.6
2016-07-29T00:50:41.398Z,19.6
2016-07-29T00:50:51.393Z,19.6
2016-07-29T00:51:01.388Z,19.6
2016-07-29T00:51:11.385Z,19.6
2016-07-29T00:51:21.382Z,19.6
2016-07-29T00:51:31.376Z,19.6
2016-07-29T00:51:41.372Z,19.6
2016-07-29T00:51:51.366Z,19.6
2016-07-29T00:52:01.361Z,19.7
2016-07-29T00:52:11.358Z,19.6
2016-07-29T00:52:21.353Z,19.6
2016-07-29T00:52:31.348Z,19.6
2016-07-29T00:52:41.346Z,19.5
2016-07-29T00:52:51.339Z,19.6
2016-07-29T00:53:01.335Z,19.6
2016-07-29T00:53:11.330Z,19.6
2016-07-29T00:53:21.324Z,19.6
2016-07-29T00:53:31.321Z,19.6
2016-07-29T00:53:41.315Z,19.6
2016-07-29T00:53:51.311Z,19.6
2016-07-29T00:54:01.308Z,19.6
2016-07-29T00:54:11.302Z,19.6
2016-07-29T00:54:21.299Z,19.5
2016-07-29T00:54:31.292Z,19.6
2016-07-29T00:54:41.289Z,19.6
2016-07-29T00:54:51.285Z,19.6
2016-07-29T00:55:01.280Z,19.6
2016-07-29T00:55:11.275Z,19.5
2016-07-29T00:55:21.271Z,19.6
2016-07-29T00:55:31.266Z,19.6
2016-07-29T00:55:41.262Z,19.6
2016-07-29T00:55:51.257Z,19.5
2016-07-29T00:56:01.253Z,19.6
2016-07-29T00:56:11.249Z,19.6
2016-07-29T00:56:21.244Z,19.5
2016-07-29T00:56:31.239Z,19.5
2016-07-29T00:56:41.236Z,19.5
2016-07-29T00:56:51.231Z,19.5
2016-07-29T00:57:01.226Z,19.6
2016-07-29T00:57:11.222Z,19.5
2016-07-29T00:57:21.216Z,19.5
2016-07-29T00:57:31.212Z,19.5
2016-07-29T00:57:41.207Z,19.6
2016-07-29T00:57:51.203Z,19.6
2016-07-29T00:58:01.199Z,19.6
2016-07-29T00:58:11.194Z,19.5
2016-07-29T00:58:21.189Z,19.6
2016-07-29T00:58:31.183Z,19.5
2016-07-29T00:58:41.180Z,19.5
2016-07-29T00:58:51.177Z,19.6
2016-07-29T00:59:01.171Z,19.5
2016-07-29T00:59:11.167Z,19.6
2016-07-29T00:59:21.162Z,19.6
2016-07-29T00:59:31.157Z,19.5
2016-07-29T00:59:41.152Z,19.6
2016-07-29T00:59:51.149Z,19.6
2016-07-29T01:00:01.145Z,19.6
2016-07-29T01:00:11.139Z,19.5
2016-07-29T01:00:21.133Z,19.5
2016-07-29T01:00:31.129Z,19.6
2016-07-29T01:00:41.125Z,19.5
2016-07-29T01:00:51.120Z,19.5
2016-07-29T01:01:01.116Z,19.5
2016-07-29T01:01:11.112Z,19.5
2016-07-29T01:01:21.108Z,19.5
2016-07-29T01:01:31.105Z,19.6
2016-07-29T01:01:41.098Z,19.6
2016-07-29T01:01:51.094Z,19.5
2016-07-29T01:02:01.091Z,19.5
2016-07-29T01:02:11.084Z,19.6
2016-07-29T01:02:21.081Z,19.6
2016-07-29T01:02:31.075Z,19.5
2016-07-29T01:02:41.072Z,19.6
2016-07-29T01:02:51.066Z,19.5
2016-07-29T01:03:01.062Z,19.5
2016-07-29T01:03:11.059Z,19.5
2016-07-29T01:03:21.053Z,19.5
2016-07-29T01:03:31.048Z,19.5
2016-07-29T01:03:41.045Z,19.5
2016-07-29T01:03:51.038Z,19.5
2016-07-29T01:04:01.034Z,19.5
2016-07-29T01:04:11.030Z,19.6
2016-07-29T01:04:21.024Z,19.5
2016-07-29T01:04:31.021Z,19.6
2016-07-29T01:04:41.015Z,19.5
2016-07-29T01:04:51.012Z,19.5
2016-07-29T01:05:01.006Z,19.5
2016-07-29T01:05:11.002Z,19.5
2016-07-29T01:05:20.998Z,19.6
2016-07-29T01:05:30.994Z,19.6
2016-07-29T01:05:40.987Z,19.6
2016-07-29T01:05:50.984Z,19.6
2016-07-29T01:06:00.980Z,19.5
2016-07-29T01:06:10.975Z,19.6
2016-07-29T01:06:20.971Z,19.5
2016-07-29T01:06:30.966Z,19.6
2016-07-29T01:06:40.963Z,19.5
2016-07-29T01:06:50.958Z,19.5
2016-07-29T01:07:00.953Z,19.6
2016-07-29T01:07:10.949Z,19.5
2016-07-29T01:07:20.944Z,19.5
2016-07-29T01:07:30.939Z,19.5
2016-07-29T01:07:40.934Z,19.4
2016-07-29T01:07:50.930Z,19.5
2016-07-29T01:08:00.925Z,19.5
2016-07-29T01:08:10.921Z,19.5
2016-07-29T01:08:20.916Z,19.5
2016-07-29T01:08:30.914Z,19.5
2016-07-29T01:08:40.912Z,19.5
2016-07-29T01:08:50.901Z,19.5
2016-07-29T01:09:00.898Z,19.4
2016-07-29T01:09:10.893Z,19.5
2016-07-29T01:09:20.890Z,19.5
2016-07-29T01:09:30.885Z,19.5
2016-07-29T01:09:40.878Z,19.5
2016-07-29T01:09:50.875Z,19.5
2016-07-29T01:10:00.871Z,19.5
2016-07-29T01:10:10.867Z,19.5
2016-07-29T01:10:20.862Z,19.5
2016-07-29T01:10:30.856Z,19.5
2016-07-29T01:10:40.851Z,19.5
2016-07-29T01:10:50.847Z,19.5
2016-07-29T01:11:00.843Z,19.5
2016-07-29T01:11:10.838Z,19.5
2016-07-29T01:11:20.835Z,19.5
2016-07-29T01:11:30.831Z,19.5
2016-07-29T01:11:40.826Z,19.5
2016-07-29T01:11:50.821Z,19.4
2016-07-29T01:12:00.816Z,19.5
2016-07-29T01:12:10.813Z,19.4
2016-07-29T01:12:20.806Z,19.5
2016-07-29T01:12:30.803Z,19.4
2016-07-29T01:12:40.798Z,19.5
2016-07-29T01:12:50.793Z,19.4
2016-07-29T01:13:00.790Z,19.4
2016-07-29T01:13:10.785Z,19.5
2016-07-29T01:13:20.781Z,19.5
2016-07-29T01:13:30.777Z,19.5
2016-07-29T01:13:40.771Z,19.5
2016-07-29T01:13:50.765Z,19.5
2016-07-29T01:14:00.762Z,19.4
2016-07-29T01:14:10.756Z,19.5
2016-07-29T01:14:20.752Z,19.5
2016-07-29T01:14:30.747Z,19.4
2016-07-29T01:14:40.742Z,19.5
2016-07-29T01:14:50.739Z,19.5
2016-07-29T01:15:00.732Z,19.4
2016-07-29T01:15:10.730Z,19.4
2016-07-29T01:15:20.726Z,19.5
2016-07-29T01:15:30.720Z,19.5
2016-07-29T01:15:40.716Z,19.5
2016-07-29T01:15:50.711Z,19.5
2016-07-29T01:16:00.706Z,19.5
2016-07-29T01:16:10.703Z,19.5
2016-07-29T01:16:20.697Z,19.4
2016-07-29T01:16:30.692Z,19.5
2016-07-29T01:16:40.690Z,19.5
2016-07-29T01:16:50.684Z,19.4
2016-07-29T01:17:00.680Z,19.5
2016-07-29T01:17:10.675Z,19.5
2016-07-29T01:17:20.670Z,19.5
2016-07-29T01:17:30.667Z,19.4
2016-07-29T01:17:40.661Z,19.4
2016-07-29T01:17:50.656Z,19.5
2016-07-29T01:18:00.652Z,19.4
2016-07-29T01:18:10.646Z,19.4
2016-07-29T01:18:20.644Z,19.5
2016-07-29T01:18:30.638Z,19.4
2016-07-29T01:18:40.634Z,19.5
2016-07-29T01:18:50.628Z,19.4
2016-07-29T01:19:00.626Z,19.4
2016-07-29T01:19:10.620Z,19.5
2016-07-29T01:19:20.616Z,19.5
2016-07-29T01:19:30.611Z,19.4
2016-07-29T01:19:40.605Z,19.5
2016-07-29T01:19:50.602Z,19.5
2016-07-29T01:20:00.597Z,19.4
2016-07-29T01:20:10.593Z,19.4
2016-07-29T01:20:20.588Z,19.4
2016-07-29T01:20:30.583Z,19.4
2016-07-29T01:20:40.579Z,19.4
2016-07-29T01:20:50.574Z,19.5
2016-07-29T01:21:00.570Z,19.4
2016-07-29T01:21:10.566Z,19.5
2016-07-29T01:21:20.562Z,19.4
2016-07-29T01:21:30.558Z,19.4
2016-07-29T01:21:40.551Z,19.4
2016-07-29T01:21:50.548Z,19.4
2016-07-29T01:22:00.544Z,19.4
2016-07-29T01:22:10.538Z,19.5
2016-07-29T01:22:20.534Z,19.4
2016-07-29T01:22:30.529Z,19.5
2016-07-29T01:22:40.524Z,19.5
2016-07-29T01:22:50.520Z,19.4
2016-07-29T01:23:00.515Z,19.4
2016-07-29T01:23:10.511Z,19.4
2016-07-29T01:23:20.507Z,19.4
2016-07-29T01:23:30.500Z,19.5
2016-07-29T01:23:40.497Z,19.4
2016-07-29T01:23:50.491Z,19.4
2016-07-29T01:24:00.487Z,19.4
2016-07-29T01:24:10.483Z,19.5
2016-07-29T01:24:20.478Z,19.4
2016-07-29T01:24:30.475Z,19.4
2016-07-29T01:24:40.469Z,19.5
2016-07-29T01:24:50.465Z,19.5
2016-07-29T01:25:00.461Z,19.5
2016-07-29T01:25:10.455Z,19.4
2016-07-29T01:25:20.452Z,19.4
2016-07-29T01:25:30.448Z,19.4
2016-07-29T01:25:40.441Z,19.4
2016-07-29T01:25:50.437Z,19.5
2016-07-29T01:26:00.434Z,19.4
2016-07-29T01:26:10.429Z,19.5
2016-07-29T01:26:20.426Z,19.5
2016-07-29T01:26:30.419Z,19.4
2016-07-29T01:26:40.415Z,19.5
2016-07-29T01:26:50.411Z,19.5
2016-07-29T01:27:00.406Z,19.4
2016-07-29T01:27:10.402Z,19.4
2016-07-29T01:27:20.401Z,19.5
2016-07-29T01:27:30.392Z,19.4
2016-07-29T01:27:40.387Z,19.4
2016-07-29T01:27:50.381Z,19.4
2016-07-29T01:28:00.383Z,19.4
2016-07-29T01:28:10.377Z,19.4
2016-07-29T01:28:20.368Z,19.4
2016-07-29T01:28:30.365Z,19.4
2016-07-29T01:28:40.360Z,19.4
2016-07-29T01:28:50.357Z,19.4
2016-07-29T01:29:00.352Z,19.4
2016-07-29T01:29:10.346Z,19.4
2016-07-29T01:29:20.341Z,19.4
2016-07-29T01:29:30.338Z,19.4
2016-07-29T01:29:40.332Z,19.4
2016-07-29T01:29:50.328Z,19.4
2016-07-29T01:30:00.325Z,19.4
2016-07-29T01:30:10.319Z,19.4
2016-07-29T01:30:20.316Z,19.4
2016-07-29T01:30:30.310Z,19.4
2016-07-29T01:30:40.306Z,19.4
2016-07-29T01:30:50.301Z,19.4
2016-07-29T01:31:00.297Z,19.4
2016-07-29T01:31:10.291Z,19.4
2016-07-29T01:31:20.288Z,19.4
2016-07-29T01:31:30.292Z,19.4
2016-07-29T01:31:40.278Z,19.4
2016-07-29T01:31:50.273Z,19.4
2016-07-29T01:32:00.270Z,19.4
2016-07-29T01:32:10.265Z,19.4
2016-07-29T01:32:20.261Z,19.4
2016-07-29T01:32:30.255Z,19.4
2016-07-29T01:32:40.251Z,19.4
2016-07-29T01:32:50.247Z,19.3
2016-07-29T01:33:00.243Z,19.4
2016-07-29T01:33:10.236Z,19.4
2016-07-29T01:33:20.232Z,19.4
2016-07-29T01:33:30.228Z,19.4
2016-07-29T01:33:40.223Z,19.4
2016-07-29T01:33:50.220Z,19.4
2016-07-29T01:34:00.215Z,19.4
2016-07-29T01:34:10.209Z,19.4
2016-07-29T01:34:20.204Z,19.3
2016-07-29T01:34:30.199Z,19.4
2016-07-29T01:34:40.196Z,19.3
2016-07-29T01:34:50.191Z,19.4
2016-07-29T01:35:00.187Z,19.4
2016-07-29T01:35:10.182Z,19.3
2016-07-29T01:35:20.178Z,19.4
2016-07-29T01:35:30.174Z,19.4
2016-07-29T01:35:40.170Z,19.4
2016-07-29T01:35:50.164Z,19.4
2016-07-29T01:36:00.161Z,19.4
2016-07-29T01:36:10.156Z,19.3
2016-07-29T01:36:20.150Z,19.3
2016-07-29T01:36:30.145Z,19.3
2016-07-29T01:36:40.143Z,19.3
2016-07-29T01:36:50.137Z,19.3
2016-07-29T01:37:00.133Z,19.3
2016-07-29T01:37:10.128Z,19.3
2016-07-29T01:37:20.123Z,19.3
2016-07-29T01:37:30.120Z,19.3
2016-07-29T01:37:40.114Z,19.4
2016-07-29T01:37:50.114Z,19.3
2016-07-29T01:38:00.105Z,19.4
2016-07-29T01:38:10.099Z,19.3
2016-07-29T01:38:20.095Z,19.3
2016-07-29T01:38:30.089Z,19.3
2016-07-29T01:38:40.088Z,19.3
2016-07-29T01:38:50.081Z,19.3
2016-07-29T01:39:00.078Z,19.3
2016-07-29T01:39:10.072Z,19.3
2016-07-29T01:39:20.069Z,19.3
2016-07-29T01:39:30.063Z,19.3
2016-07-29T01:39:40.059Z,19.3
2016-07-29T01:39:50.055Z,19.3
2016-07-29T01:40:00.049Z,19.3
2016-07-29T01:40:10.045Z,19.3
2016-07-29T01:40:20.040Z,19.3
2016-07-29T01:40:30.038Z,19.3
2016-07-29T01:40:40.032Z,19.4
2016-07-29T01:40:50.028Z,19.4
2016-07-29T01:41:00.023Z,19.4
2016-07-29T01:41:10.017Z,19.3
2016-07-29T01:41:20.013Z,19.3
2016-07-29T01:41:30.008Z,19.3
2016-07-29T01:41:40.003Z,19.3
2016-07-29T01:41:50.000Z,19.3
2016-07-29T01:41:59.995Z,19.3
2016-07-29T01:42:09.990Z,19.4
2016-07-29T01:42:19.986Z,19.3
2016-07-29T01:42:29.981Z,19.3
2016-07-29T01:42:39.976Z,19.3
2016-07-29T01:42:49.972Z,19.4
2016-07-29T01:42:59.966Z,19.3
2016-07-29T01:43:09.963Z,19.3
2016-07-29T01:43:19.959Z,19.3
2016-07-29T01:43:29.953Z,19.3
2016-07-29T01:43:39.950Z,19.3
2016-07-29T01:43:49.944Z,19.3
2016-07-29T01:43:59.940Z,19.4
2016-07-29T01:44:09.936Z,19.3
2016-07-29T01:44:19.930Z,19.3
2016-07-29T01:44:29.925Z,19.4
2016-07-29T01:44:39.922Z,19.3
2016-07-29T01:44:49.917Z,19.3
2016-07-29T01:44:59.923Z,19.4
2016-07-29T01:45:09.909Z,19.3
2016-07-29T01:45:19.904Z,19.3
2016-07-29T01:45:29.899Z,19.3
2016-07-29T01:45:39.895Z,19.3
2016-07-29T01:45:49.891Z,19.3
2016-07-29T01:45:59.885Z,19.3
2016-07-29T01:46:09.881Z,19.3
2016-07-29T01:46:19.876Z,19.3
2016-07-29T01:46:29.871Z,19.4
2016-07-29T01:46:39.867Z,19.2
2016-07-29T01:46:49.863Z,19.3
2016-07-29T01:46:59.858Z,19.3
2016-07-29T01:47:09.854Z,19.3
2016-07-29T01:47:19.850Z,19.2
2016-07-29T01:47:29.844Z,19.3
2016-07-29T01:47:39.842Z,19.2
2016-07-29T01:47:49.836Z,19.3
2016-07-29T01:47:59.830Z,19.3
2016-07-29T01:48:09.826Z,19.2
2016-07-29T01:48:19.821Z,19.3
2016-07-29T01:48:29.816Z,19.2
2016-07-29T01:48:39.813Z,19.3
2016-07-29T01:48:49.808Z,19.2
2016-07-29T01:48:59.804Z,19.3
2016-07-29T01:49:09.799Z,19.3
2016-07-29T01:49:19.794Z,19.3
2016-07-29T01:49:29.789Z,19.2
2016-07-29T01:49:39.784Z,19.2
2016-07-29T01:49:49.780Z,19.3
2016-07-29T01:49:59.776Z,19.2
2016-07-29T01:50:09.771Z,19.3
2016-07-29T01:50:19.767Z,19.2
2016-07-29T01:50:29.762Z,19.3
2016-07-29T01:50:39.758Z,19.3
2016-07-29T01:50:49.760Z,19.2
2016-07-29T01:50:59.749Z,19.3
2016-07-29T01:51:09.754Z,19.3
2016-07-29T01:51:19.738Z,19.2
2016-07-29T01:51:29.734Z,19.3
2016-07-29T01:51:39.729Z,19.2
2016-07-29T01:51:49.724Z,19.3
2016-07-29T01:51:59.722Z,19.2
2016-07-29T01:52:09.723Z,19.2
2016-07-29T01:52:19.711Z,19.2
2016-07-29T01:52:29.707Z,19.2
2016-07-29T01:52:39.703Z,19.3
2016-07-29T01:52:49.698Z,19.3
2016-07-29T01:52:59.694Z,19.3
2016-07-29T01:53:09.689Z,19.2
2016-07-29T01:53:19.684Z,19.3
2016-07-29T01:53:29.680Z,19.3
2016-07-29T01:53:39.674Z,19.3
2016-07-29T01:53:49.671Z,19.2
2016-07-29T01:53:59.675Z,19.2
2016-07-29T01:54:09.662Z,19.3
2016-07-29T01:54:19.656Z,19.2
2016-07-29T01:54:29.652Z,19.3
2016-07-29T01:54:39.647Z,19.2
2016-07-29T01:54:49.645Z,19.2
2016-07-29T01:54:59.638Z,19.3
2016-07-29T01:55:09.633Z,19.2
2016-07-29T01:55:19.630Z,19.3
2016-07-29T01:55:29.626Z,19.2
2016-07-29T01:55:39.620Z,19.2
2016-07-29T01:55:49.615Z,19.3
2016-07-29T01:55:59.611Z,19.3
2016-07-29T01:56:09.607Z,19.3
2016-07-29T01:56:19.602Z,19.3
2016-07-29T01:56:29.597Z,19.2
2016-07-29T01:56:39.598Z,19.2
2016-07-29T01:56:49.588Z,19.3
2016-07-29T01:56:59.582Z,19.3
2016-07-29T01:57:09.576Z,19.2
2016-07-29T01:57:19.575Z,19.2
2016-07-29T01:57:29.570Z,19.2
2016-07-29T01:57:39.564Z,19.3
2016-07-29T01:57:49.560Z,19.2
2016-07-29T01:57:59.556Z,19.1
2016-07-29T01:58:09.551Z,19.2
2016-07-29T01:58:19.547Z,19.2
2016-07-29T01:58:29.543Z,19.2
2016-07-29T01:58:39.538Z,19.2
2016-07-29T01:58:49.534Z,19.2
2016-07-29T01:58:59.529Z,19.2
2016-07-29T01:59:09.524Z,19.2
2016-07-29T01:59:19.520Z,19.3
2016-07-29T01:59:29.514Z,19.2
2016-07-29T01:59:39.511Z,19.2
2016-07-29T01:59:49.504Z,19.2
2016-07-29T01:59:59.502Z,19.2
2016-07-29T02:00:09.497Z,19.2
2016-07-29T02:00:19.493Z,19.2
2016-07-29T02:00:29.488Z,19.2
2016-07-29T02:00:39.485Z,19.2
2016-07-29T02:00:49.478Z,19.2
2016-07-29T02:00:59.474Z,19.2
2016-07-29T02:01:09.470Z,19.2
2016-07-29T02:01:19.465Z,19.2
2016-07-29T02:01:29.461Z,19.2
2016-07-29T02:01:39.455Z,19.2
2016-07-29T02:01:49.451Z,19.2
2016-07-29T02:01:59.446Z,19.2
2016-07-29T02:02:09.441Z,19.2
2016-07-29T02:02:19.438Z,19.2
2016-07-29T02:02:29.432Z,19.2
2016-07-29T02:02:39.429Z,19.2
2016-07-29T02:02:49.424Z,19.2
2016-07-29T02:02:59.418Z,19.2
2016-07-29T02:03:09.419Z,19.2
2016-07-29T02:03:19.410Z,19.2
2016-07-29T02:03:29.405Z,19.2
2016-07-29T02:03:39.401Z,19.2
2016-07-29T02:03:49.397Z,19.2
2016-07-29T02:03:59.392Z,19.2
2016-07-29T02:04:09.387Z,19.1
2016-07-29T02:04:19.382Z,19.2
2016-07-29T02:04:29.378Z,19.2
2016-07-29T02:04:39.374Z,19.2
2016-07-29T02:04:49.368Z,19.2
2016-07-29T02:04:59.365Z,19.1
2016-07-29T02:05:09.359Z,19.1
2016-07-29T02:05:19.355Z,19.2
2016-07-29T02:05:29.349Z,19.2
2016-07-29T02:05:39.346Z,19.2
2016-07-29T02:05:49.342Z,19.1
2016-07-29T02:05:59.337Z,19.2
2016-07-29T02:06:09.332Z,19.2
2016-07-29T02:06:19.328Z,19.1
2016-07-29T02:06:29.322Z,19.1
2016-07-29T02:06:39.317Z,19.2
2016-07-29T02:06:49.314Z,19.1
2016-07-29T02:06:59.307Z,19.2
2016-07-29T02:07:09.305Z,19.1
2016-07-29T02:07:19.300Z,19.1
2016-07-29T02:07:29.295Z,19.1
2016-07-29T02:07:39.290Z,19.1
2016-07-29T02:07:49.286Z,19.2
2016-07-29T02:07:59.282Z,19.1
2016-07-29T02:08:09.282Z,19.1
2016-07-29T02:08:19.272Z,19.1
2016-07-29T02:08:29.268Z,19.1
2016-07-29T02:08:39.263Z,19.1
2016-07-29T02:08:49.258Z,19.2
2016-07-29T02:08:59.255Z,19.1
2016-07-29T02:09:09.249Z,19.1
2016-07-29T02:09:19.245Z,19.1
2016-07-29T02:09:29.242Z,19.1
2016-07-29T02:09:39.240Z,19.1
2016-07-29T02:09:49.232Z,19.1
2016-07-29T02:09:59.228Z,19.2
2016-07-29T02:10:09.222Z,19.2
2016-07-29T02:10:19.217Z,19.1
2016-07-29T02:10:29.214Z,19.2
2016-07-29T02:10:39.209Z,19.1
2016-07-29T02:10:49.206Z,19.1
2016-07-29T02:10:59.199Z,19.1
2016-07-29T02:11:09.195Z,19.1
2016-07-29T02:11:19.189Z,19.2
2016-07-29T02:11:29.186Z,19.1
2016-07-29T02:11:39.181Z,19.1
2016-07-29T02:11:49.175Z,19.2
2016-07-29T02:11:59.172Z,19.1
2016-07-29T02:12:09.167Z,19.1
2016-07-29T02:12:19.162Z,19.2
2016-07-29T02:12:29.158Z,19.2
2016-07-29T02:12:39.153Z,19.1
2016-07-29T02:12:49.149Z,19.1
2016-07-29T02:12:59.144Z,19.1